Time;durP1;ratioP1;P1;durP2;ratioP2;P2;SDS_P1;SDS_P2;PMS_P1;PMS_P2;Temp;Humidity;BMP_temperature;BMP_pressure;BME280_temperature;BME280_humidity;BME280_pressure;Samples;Min_cycle;Max_cycle;Signal;HPM_P1;HPM_P2
2023/08/25 00:01:23;;;;;;;1999.90;999.90;;;19.50;99.90;;;;;;4993047;28;20239;-76
2023/08/25 00:03:49;;;;;;;1999.90;999.90;;;19.50;99.90;;;;;;4993134;28;20243;-76
2023/08/25 00:06:15;;;;;;;1999.90;999.90;;;19.40;99.90;;;;;;4993065;28;20201;-75
2023/08/25 00:08:40;;;;;;;1999.90;999.90;;;19.40;99.90;;;;;;4993573;28;20175;-75
2023/08/25 00:11:06;;;;;;;1999.90;999.90;;;19.40;99.90;;;;;;4992840;28;20286;-74
2023/08/25 00:13:35;;;;;;;1999.90;999.90;;;19.40;99.90;;;;;;4993007;28;20193;-76
2023/08/25 00:16:03;;;;;;;1999.90;999.90;;;19.40;99.90;;;;;;4993263;28;20581;-76
2023/08/25 00:18:29;;;;;;;1999.90;999.90;;;19.40;99.90;;;;;;4993429;28;20787;-76
2023/08/25 00:20:55;;;;;;;1999.90;999.90;;;19.40;99.90;;;;;;4993051;28;20409;-75
2023/08/25 00:23:20;;;;;;;1999.90;999.90;;;19.40;99.90;;;;;;4992995;28;20751;-75
2023/08/25 00:25:46;;;;;;;1999.90;999.90;;;19.50;99.90;;;;;;4993532;28;20640;-76
2023/08/25 00:28:12;;;;;;;1999.90;999.90;;;19.40;99.90;;;;;;4993494;28;20320;-76
2023/08/25 00:30:37;;;;;;;1999.90;999.90;;;19.40;99.90;;;;;;4993125;28;20247;-76
2023/08/25 00:33:03;;;;;;;1999.90;999.90;;;19.30;99.90;;;;;;4992159;28;20188;-75
2023/08/25 00:35:29;;;;;;;1999.90;999.90;;;19.30;99.90;;;;;;4992447;28;20164;-75
2023/08/25 00:37:54;;;;;;;1999.90;999.90;;;19.30;99.90;;;;;;4992377;28;20892;-74
2023/08/25 00:40:20;;;;;;;1999.90;999.90;;;19.30;99.90;;;;;;4992650;28;20207;-76
2023/08/25 00:42:45;;;;;;;1999.90;999.90;;;19.30;99.90;;;;;;4992424;28;20188;-75
2023/08/25 00:45:11;;;;;;;1999.90;999.90;;;19.30;99.90;;;;;;4992671;28;20248;-75
2023/08/25 00:47:37;;;;;;;1999.90;999.90;;;19.40;99.90;;;;;;4992712;28;20167;-76
2023/08/25 00:50:03;;;;;;;1999.90;999.90;;;19.30;99.90;;;;;;4992460;28;20256;-76
2023/08/25 00:52:29;;;;;;;1999.90;999.90;;;19.30;99.90;;;;;;4992733;28;20469;-76
2023/08/25 00:54:56;;;;;;;1999.90;999.90;;;19.30;99.90;;;;;;4992755;28;20416;-76
2023/08/25 00:57:22;;;;;;;1999.90;999.90;;;19.20;99.90;;;;;;4992838;28;20416;-76
2023/08/25 00:59:50;;;;;;;1999.90;999.90;;;19.20;99.90;;;;;;4992806;28;20401;-75
2023/08/25 01:02:15;;;;;;;1999.90;999.90;;;19.20;99.90;;;;;;4992425;28;20432;-74
2023/08/25 01:04:41;;;;;;;1999.90;999.90;;;19.20;99.90;;;;;;4992495;28;20920;-76
2023/08/25 01:07:06;;;;;;;1999.90;999.90;;;19.20;99.90;;;;;;4992455;28;20172;-74
2023/08/25 01:09:33;;;;;;;1999.90;999.90;;;19.20;99.90;;;;;;4991872;28;20636;-74
2023/08/25 01:12:09;;;;;;;1999.90;999.90;;;19.20;99.90;;;;;;4994205;28;20163;-74
2023/08/25 01:15:07;;;;;;;1999.90;999.90;;;19.20;99.90;;;;;;4995412;28;20460;-73
2023/08/25 01:17:52;;;;;;;1999.90;999.90;;;19.20;99.90;;;;;;4995312;28;20403;-74
2023/08/25 01:20:22;;;;;;;1999.90;999.90;;;19.10;99.90;;;;;;4995265;28;20478;-75
2023/08/25 01:23:21;;;;;;;1999.90;999.90;;;19.10;99.90;;;;;;4994910;28;20513;-73
2023/08/25 01:25:50;;;;;;;1999.90;999.90;;;19.10;99.90;;;;;;4995263;28;20403;-73
2023/08/25 01:28:21;;;;;;;1999.90;999.90;;;19.10;99.90;;;;;;4995181;28;20935;-74
2023/08/25 01:30:48;;;;;;;1999.90;999.90;;;19.20;99.90;;;;;;4995084;28;20491;-74
2023/08/25 01:33:15;;;;;;;1999.90;999.90;;;19.30;99.90;;;;;;4994837;28;20485;-75
2023/08/25 01:35:56;;;;;;;1999.90;999.90;;;19.40;99.90;;;;;;4995008;28;20831;-74
2023/08/25 01:38:36;;;;;;;1999.90;999.90;;;19.40;99.90;;;;;;4994926;28;20414;-74
2023/08/25 01:41:11;;;;;;;1999.90;999.90;;;19.40;99.90;;;;;;4993490;28;20415;-73
2023/08/25 01:43:41;;;;;;;1999.90;999.90;;;19.50;99.90;;;;;;4994811;28;20801;-75
2023/08/25 01:46:10;;;;;;;1999.90;999.90;;;19.40;99.90;;;;;;4994864;28;20908;-74
2023/08/25 01:48:37;;;;;;;1999.90;999.90;;;19.40;99.90;;;;;;4994716;28;20383;-74
2023/08/25 01:51:03;;;;;;;1999.90;999.90;;;19.40;99.90;;;;;;4994327;28;20457;-74
2023/08/25 01:53:29;;;;;;;1999.90;999.90;;;19.50;99.90;;;;;;4994646;28;20435;-74
2023/08/25 01:55:55;;;;;;;1999.90;999.90;;;19.60;99.90;;;;;;4994653;28;20174;-74
2023/08/25 01:58:21;;;;;;;1999.90;999.90;;;19.60;99.90;;;;;;4994689;28;20409;-75
2023/08/25 02:00:46;;;;;;;1999.90;999.90;;;19.60;99.90;;;;;;4994547;28;20409;-74
2023/08/25 02:03:13;;;;;;;1999.90;999.90;;;19.60;99.90;;;;;;4994399;28;20213;-74
2023/08/25 02:05:40;;;;;;;1999.90;999.90;;;19.70;99.90;;;;;;4994497;28;20178;-74
2023/08/25 02:08:06;;;;;;;1999.90;999.90;;;19.70;99.90;;;;;;4994349;28;20409;-74
2023/08/25 02:10:32;;;;;;;1999.90;999.90;;;19.60;99.90;;;;;;4994355;28;20451;-74
2023/08/25 02:12:57;;;;;;;1999.90;999.90;;;19.60;99.90;;;;;;4993941;28;20924;-74
2023/08/25 02:15:23;;;;;;;1999.90;999.90;;;19.70;99.90;;;;;;4994287;28;20224;-74
2023/08/25 02:17:49;;;;;;;1999.90;999.90;;;19.70;99.90;;;;;;4994262;28;20177;-72
2023/08/25 02:20:14;;;;;;;1999.90;999.90;;;19.70;99.90;;;;;;4994135;28;20903;-74
2023/08/25 02:22:40;;;;;;;1999.90;999.90;;;19.70;99.90;;;;;;4992987;28;20255;-76
2023/08/25 02:25:06;;;;;;;1999.90;999.90;;;19.70;99.90;;;;;;4994381;28;20170;-76
2023/08/25 02:27:31;;;;;;;1999.90;999.90;;;19.70;99.90;;;;;;4994272;28;20708;-75
2023/08/25 02:29:57;;;;;;;1999.90;999.90;;;19.70;99.90;;;;;;4994184;28;20531;-75
2023/08/25 02:32:22;;;;;;;1999.90;999.90;;;19.70;99.90;;;;;;4993680;28;20200;-75
2023/08/25 02:34:48;;;;;;;1999.90;999.90;;;19.70;99.90;;;;;;4994118;28;20178;-75
2023/08/25 02:37:14;;;;;;;1999.90;999.90;;;19.70;99.90;;;;;;4994117;28;20172;-76
2023/08/25 02:39:39;;;;;;;1999.90;999.90;;;19.70;99.90;;;;;;4994034;28;20172;-76
2023/08/25 02:42:05;;;;;;;1999.90;999.90;;;19.70;99.90;;;;;;4993538;28;20590;-76
2023/08/25 02:44:31;;;;;;;1999.90;999.90;;;19.60;99.90;;;;;;4993789;28;20196;-75
2023/08/25 02:46:56;;;;;;;1999.90;999.90;;;19.60;99.90;;;;;;4993825;28;20165;-74
2023/08/25 02:49:23;;;;;;;1999.90;999.90;;;19.60;99.90;;;;;;4993863;28;20183;-76
2023/08/25 02:51:49;;;;;;;1999.90;999.90;;;19.50;99.90;;;;;;4993365;28;20216;-76
2023/08/25 02:54:14;;;;;;;1999.90;999.90;;;19.50;99.90;;;;;;4993737;28;20395;-74
2023/08/25 02:56:40;;;;;;;1999.90;999.90;;;19.40;99.90;;;;;;4993758;28;20598;-76
2023/08/25 02:59:05;;;;;;;1999.90;999.90;;;19.40;99.90;;;;;;4993625;28;20240;-75
2023/08/25 03:01:31;;;;;;;1999.90;999.90;;;19.40;99.90;;;;;;4993181;28;20184;-75
2023/08/25 03:03:57;;;;;;;1999.90;999.90;;;19.40;99.90;;;;;;4993774;28;20203;-75
2023/08/25 03:06:22;;;;;;;1999.90;999.90;;;19.30;99.90;;;;;;4993350;28;20193;-74
2023/08/25 03:08:48;;;;;;;1999.90;999.90;;;19.30;99.90;;;;;;4993321;28;20165;-74
2023/08/25 03:11:14;;;;;;;1999.90;999.90;;;19.30;99.90;;;;;;4992932;28;20198;-74
2023/08/25 03:13:39;;;;;;;1999.90;999.90;;;19.30;99.90;;;;;;4993105;28;20189;-75
2023/08/25 03:16:07;;;;;;;1999.90;999.90;;;19.20;99.90;;;;;;4993098;28;20656;-74
2023/08/25 03:18:33;;;;;;;1999.90;999.90;;;19.20;99.90;;;;;;4993159;28;20186;-74
2023/08/25 03:20:59;;;;;;;1999.90;999.90;;;19.20;99.90;;;;;;4992948;28;20412;-74
2023/08/25 03:23:24;;;;;;;1999.90;999.90;;;19.20;99.90;;;;;;4993027;28;20428;-73
2023/08/25 03:25:50;;;;;;;1999.90;999.90;;;19.10;99.90;;;;;;4993003;28;20521;-74
2023/08/25 03:28:15;;;;;;;1999.90;999.90;;;19.10;99.90;;;;;;4992981;28;20176;-74
2023/08/25 03:30:41;;;;;;;1999.90;999.90;;;19.10;99.90;;;;;;4992831;28;20288;-74
2023/08/25 03:33:07;;;;;;;1999.90;999.90;;;19.00;99.90;;;;;;4992422;28;20218;-74
2023/08/25 03:35:36;;;;;;;1999.90;999.90;;;19.00;99.90;;;;;;4992792;28;20169;-74
2023/08/25 03:38:02;;;;;;;1999.90;999.90;;;19.00;99.90;;;;;;4992895;28;20185;-74
2023/08/25 03:40:28;;;;;;;1999.90;999.90;;;18.90;99.90;;;;;;4992783;28;20433;-74
2023/08/25 03:42:54;;;;;;;1999.90;999.90;;;19.00;99.90;;;;;;4992482;28;20423;-75
2023/08/25 03:45:20;;;;;;;1999.90;999.90;;;19.00;99.90;;;;;;4992668;28;20174;-75
2023/08/25 03:47:46;;;;;;;1999.90;999.90;;;19.00;99.90;;;;;;4992682;28;20412;-74
2023/08/25 03:50:12;;;;;;;1999.90;999.90;;;19.10;99.90;;;;;;4992649;28;20459;-74
2023/08/25 03:52:37;;;;;;;1999.90;999.90;;;19.10;99.90;;;;;;4992349;28;20180;-74
2023/08/25 03:55:04;;;;;;;1999.90;999.90;;;19.10;99.90;;;;;;4992607;28;20204;-74
2023/08/25 03:57:29;;;;;;;1999.90;999.90;;;19.10;99.90;;;;;;4992599;28;20197;-74
2023/08/25 03:59:55;;;;;;;1999.90;999.90;;;19.10;99.90;;;;;;4992513;28;20440;-73
2023/08/25 04:02:20;;;;;;;1999.90;999.90;;;19.10;99.90;;;;;;4992216;28;20370;-75
2023/08/25 04:04:46;;;;;;;1999.90;999.90;;;19.10;99.90;;;;;;4992461;28;20204;-73
2023/08/25 04:07:13;;;;;;;1999.90;999.90;;;19.10;99.90;;;;;;4992504;28;20638;-73
2023/08/25 04:09:39;;;;;;;1999.90;999.90;;;19.10;99.90;;;;;;4992463;28;20164;-73
2023/08/25 04:12:05;;;;;;;1999.90;999.90;;;19.10;99.90;;;;;;4992131;28;20502;-74
2023/08/25 04:14:30;;;;;;;1999.90;999.90;;;19.10;99.90;;;;;;4992348;28;20501;-73
2023/08/25 04:16:56;;;;;;;1999.90;999.90;;;19.20;99.90;;;;;;4992398;28;20173;-73
2023/08/25 04:19:22;;;;;;;1999.90;999.90;;;19.20;99.90;;;;;;4992406;28;20242;-74
2023/08/25 04:21:48;;;;;;;1999.90;999.90;;;19.20;99.90;;;;;;4992111;28;20173;-74
2023/08/25 04:24:15;;;;;;;1999.90;999.90;;;19.20;99.90;;;;;;4992292;28;20186;-74
2023/08/25 04:26:41;;;;;;;1999.90;999.90;;;19.20;99.90;;;;;;4992281;28;20902;-75
2023/08/25 04:29:09;;;;;;;1999.90;999.90;;;19.10;99.90;;;;;;4992322;28;20412;-74
2023/08/25 04:31:38;;;;;;;1999.90;999.90;;;19.10;99.90;;;;;;4991890;28;20459;-74
2023/08/25 04:34:06;;;;;;;1999.90;999.90;;;19.10;99.90;;;;;;4992181;28;20420;-75
2023/08/25 04:36:36;;;;;;;1999.90;999.90;;;19.10;99.90;;;;;;4992226;28;20403;-74
2023/08/25 04:39:02;;;;;;;1999.90;999.90;;;19.10;99.90;;;;;;4992117;28;20412;-74
2023/08/25 04:41:28;;;;;;;1999.90;999.90;;;19.20;99.90;;;;;;4995007;28;20503;-75
2023/08/25 04:43:53;;;;;;;1999.90;999.90;;;19.20;99.90;;;;;;4996819;28;20464;-75
2023/08/25 04:46:19;;;;;;;1999.90;999.90;;;19.30;99.90;;;;;;4998369;28;20180;-75
2023/08/25 04:48:46;;;;;;;1999.90;999.90;;;19.30;99.90;;;;;;5000907;28;20173;-75
2023/08/25 04:51:12;;;;;;;1999.90;999.90;;;19.30;99.90;;;;;;5000400;28;20216;-75
2023/08/25 04:53:37;;;;;;;1999.90;999.90;;;19.40;99.90;;;;;;5001323;28;20464;-75
2023/08/25 04:56:04;;;;;;;1999.90;999.90;;;19.40;99.90;;;;;;5001339;28;20405;-75
2023/08/25 04:58:30;;;;;;;1999.90;999.90;;;19.40;99.90;;;;;;5001563;28;20165;-75
2023/08/25 05:00:55;;;;;;;1999.90;999.90;;;19.40;99.90;;;;;;5000318;28;20507;-75
2023/08/25 05:03:21;;;;;;;1999.90;999.90;;;19.40;99.90;;;;;;5000733;28;20216;-75
2023/08/25 05:05:47;;;;;;;1999.90;999.90;;;19.40;99.90;;;;;;5000983;28;20637;-75
2023/08/25 05:08:13;;;;;;;1999.90;999.90;;;19.40;99.90;;;;;;5001277;28;20173;-75
2023/08/25 05:10:38;;;;;;;1999.90;999.90;;;19.40;99.90;;;;;;5000966;28;20185;-75
2023/08/25 05:13:04;;;;;;;1999.90;999.90;;;19.50;99.90;;;;;;5000511;28;20441;-75
2023/08/25 05:15:29;;;;;;;1999.90;999.90;;;19.50;99.90;;;;;;5001517;28;20208;-75
2023/08/25 05:17:55;;;;;;;1999.90;999.90;;;19.60;99.90;;;;;;5000012;28;20245;-75
2023/08/25 05:20:21;;;;;;;1999.90;999.90;;;19.60;99.90;;;;;;4998871;28;20248;-75
2023/08/25 05:22:47;;;;;;;1999.90;999.90;;;19.60;99.90;;;;;;4995023;28;20560;-75
2023/08/25 05:25:14;;;;;;;1999.90;999.90;;;19.60;99.90;;;;;;4995175;28;20188;-75
2023/08/25 05:27:40;;;;;;;1999.90;999.90;;;19.70;99.90;;;;;;4995531;28;20419;-75
2023/08/25 05:30:06;;;;;;;1999.90;999.90;;;19.70;99.90;;;;;;4995158;28;20543;-76
2023/08/25 05:32:31;;;;;;;1999.90;999.90;;;19.70;99.90;;;;;;5029894;28;20196;-75
2023/08/25 05:34:57;;;;;;;1999.90;999.90;;;19.70;99.90;;;;;;5034543;28;20399;-75
2023/08/25 05:37:23;;;;;;;1999.90;999.90;;;19.70;99.90;;;;;;5034460;28;20169;-76
2023/08/25 05:39:49;;;;;;;1999.90;999.90;;;19.70;99.90;;;;;;5034543;28;20710;-76
2023/08/25 05:42:15;;;;;;;1999.90;999.90;;;19.80;99.90;;;;;;5034250;28;20651;-75
2023/08/25 05:44:41;;;;;;;1999.90;999.90;;;19.90;99.90;;;;;;5034331;28;20427;-75
2023/08/25 05:47:06;;;;;;;1999.90;999.90;;;19.90;99.90;;;;;;5034172;28;20772;-74
2023/08/25 05:49:32;;;;;;;1999.90;999.90;;;19.90;99.90;;;;;;5034133;28;20171;-72
2023/08/25 05:51:57;;;;;;;1999.90;999.90;;;20.00;99.90;;;;;;5033776;28;20616;-73
2023/08/25 05:54:23;;;;;;;1999.90;999.90;;;20.10;99.90;;;;;;5033958;28;20197;-74
2023/08/25 05:56:49;;;;;;;1999.90;999.90;;;20.10;99.90;;;;;;5033975;28;20198;-75
2023/08/25 05:59:14;;;;;;;1999.90;999.90;;;20.20;99.90;;;;;;5033906;28;20541;-74
2023/08/25 06:01:41;;;;;;;1999.90;999.90;;;20.20;99.90;;;;;;5033696;28;20173;-72
2023/08/25 06:04:06;;;;;;;1999.90;999.90;;;20.30;99.90;;;;;;5033698;28;20306;-72
2023/08/25 06:06:32;;;;;;;1999.90;999.90;;;20.40;99.90;;;;;;5033836;28;20539;-72
2023/08/25 06:08:57;;;;;;;1999.90;999.90;;;20.60;99.90;;;;;;5033766;28;20177;-72
2023/08/25 06:11:23;;;;;;;1999.90;999.90;;;20.60;99.90;;;;;;5033386;28;20207;-72
2023/08/25 06:13:49;;;;;;;1999.90;999.90;;;20.80;99.90;;;;;;5033509;28;20660;-72
2023/08/25 06:16:14;;;;;;;1999.90;999.90;;;20.80;99.90;;;;;;5033625;28;20211;-72
2023/08/25 06:18:41;;;;;;;1999.90;999.90;;;20.80;99.90;;;;;;5033610;28;20165;-72
2023/08/25 06:21:07;;;;;;;1999.90;999.90;;;20.90;99.90;;;;;;5033311;28;20173;-72
2023/08/25 06:23:33;;;;;;;1999.90;999.90;;;20.90;99.90;;;;;;5028759;28;20427;-73
2023/08/25 06:26:01;;;;;;;1999.90;999.90;;;21.00;99.90;;;;;;5014610;28;20430;-73
2023/08/25 06:28:27;;;;;;;1999.90;999.90;;;21.10;99.90;;;;;;5008370;28;20176;-73
2023/08/25 06:30:53;;;;;;;1999.90;999.90;;;21.10;99.90;;;;;;4995851;28;20473;-72
2023/08/25 06:33:18;;;;;;;1999.90;999.90;;;21.10;99.90;;;;;;4994969;28;20571;-73
2023/08/25 06:35:44;;;;;;;1999.90;999.90;;;21.20;99.90;;;;;;4994675;28;20176;-74
2023/08/25 06:38:10;;;;;;;1999.90;999.90;;;21.10;99.90;;;;;;4994586;28;20177;-73
2023/08/25 06:40:35;;;;;;;1999.90;999.90;;;21.10;99.90;;;;;;4994561;28;20521;-76
2023/08/25 06:43:02;;;;;;;1999.90;999.90;;;21.10;99.90;;;;;;4993934;28;20196;-73
2023/08/25 06:45:28;;;;;;;1999.90;999.90;;;21.10;99.90;;;;;;4994452;28;20592;-76
2023/08/25 06:47:54;;;;;;;1999.90;999.90;;;21.20;99.90;;;;;;4994433;28;20506;-73
2023/08/25 06:50:21;;;;;;;1999.90;999.90;;;21.30;99.90;;;;;;4994449;28;20215;-76
2023/08/25 06:52:47;;;;;;;1999.90;999.90;;;21.40;99.90;;;;;;4996025;28;20424;-74
2023/08/25 06:55:12;;;;;;;1999.90;999.90;;;21.50;99.90;;;;;;5009025;28;20385;-76
2023/08/25 06:57:38;;;;;;;1999.90;999.90;;;21.60;99.90;;;;;;4993977;28;20167;-76
2023/08/25 07:00:06;;;;;;;1999.90;999.90;;;21.60;99.90;;;;;;4994022;28;20183;-76
2023/08/25 07:02:31;;;;;;;1999.90;999.90;;;21.60;99.90;;;;;;4993272;28;20183;-74
2023/08/25 07:04:57;;;;;;;1999.90;999.90;;;21.50;99.90;;;;;;4993897;28;20416;-76
2023/08/25 07:07:26;;;;;;;1999.90;999.90;;;21.60;99.90;;;;;;4993753;28;20192;-73
2023/08/25 07:09:53;;;;;;;1999.90;999.90;;;21.60;99.90;;;;;;4993381;28;20172;-73
2023/08/25 07:12:18;;;;;;;1999.90;999.90;;;21.60;99.90;;;;;;4993486;28;20444;-76
2023/08/25 07:14:44;;;;;;;1999.90;999.90;;;21.50;99.90;;;;;;4993806;28;20428;-75
2023/08/25 07:17:10;;;;;;;1999.90;999.90;;;21.50;99.90;;;;;;4993716;28;20184;-74
2023/08/25 07:19:36;;;;;;;1999.90;999.90;;;21.60;99.90;;;;;;4993806;28;20600;-76
2023/08/25 07:22:02;;;;;;;1999.90;999.90;;;21.70;99.90;;;;;;4993519;28;20183;-76
2023/08/25 07:24:28;;;;;;;1999.90;999.90;;;21.80;99.90;;;;;;4990593;28;20444;-76
2023/08/25 07:26:54;;;;;;;1999.90;999.90;;;;;;;;;;4992345;28;20519;-74
2023/08/25 07:29:19;;;;;;;1999.90;999.90;;;21.70;99.90;;;;;;4998863;28;20188;-76
2023/08/25 07:31:45;;;;;;;1999.90;999.90;;;21.40;99.90;;;;;;5009055;28;20490;-75
2023/08/25 07:34:10;;;;;;;1999.90;999.90;;;21.10;99.90;;;;;;5009565;28;20197;-74
2023/08/25 07:36:37;;;;;;;1999.90;999.90;;;20.70;99.90;;;;;;5007884;28;20186;-74
2023/08/25 07:39:03;;;;;;;1999.90;999.90;;;20.50;99.90;;;;;;5006690;28;20178;-74
2023/08/25 07:41:29;;;;;;;1999.90;999.90;;;20.50;99.90;;;;;;5006744;28;20428;-74
2023/08/25 07:43:56;;;;;;;1999.90;999.90;;;20.70;99.90;;;;;;5008263;28;20449;-74
2023/08/25 07:46:21;;;;;;;1999.90;999.90;;;20.80;99.90;;;;;;5007134;28;20191;-74
2023/08/25 07:48:47;;;;;;;1999.90;999.90;;;20.90;99.90;;;;;;5007157;28;20413;-72
2023/08/25 07:51:13;;;;;;;1999.90;999.90;;;20.90;99.90;;;;;;5008352;28;20680;-72
2023/08/25 07:53:38;;;;;;;1999.90;999.90;;;20.80;99.90;;;;;;5007361;28;20290;-75
2023/08/25 07:56:04;;;;;;;1999.90;999.90;;;20.80;99.90;;;;;;5006820;28;20488;-74
2023/08/25 07:58:30;;;;;;;1999.90;999.90;;;20.80;99.90;;;;;;5008337;28;20316;-74
2023/08/25 08:00:55;;;;;;;1999.90;999.90;;;20.80;99.90;;;;;;5007136;28;20519;-75
2023/08/25 08:03:21;;;;;;;1999.90;999.90;;;20.80;99.90;;;;;;5006192;28;20204;-75
2023/08/25 08:05:48;;;;;;;1999.90;999.90;;;20.70;99.90;;;;;;5007658;28;20285;-74
2023/08/25 08:08:13;;;;;;;1999.90;999.90;;;20.60;99.90;;;;;;5006950;28;20425;-74
2023/08/25 08:10:39;;;;;;;1999.90;999.90;;;20.70;99.90;;;;;;5004679;28;20678;-72
2023/08/25 08:13:05;;;;;;;1999.90;999.90;;;20.60;99.90;;;;;;5022193;28;20201;-72
2023/08/25 08:15:31;;;;;;;1999.90;999.90;;;20.40;99.90;;;;;;5006641;28;20218;-74
2023/08/25 08:17:58;;;;;;;1999.90;999.90;;;20.40;99.90;;;;;;5004415;28;20413;-72
2023/08/25 08:20:24;;;;;;;1999.90;999.90;;;20.50;99.90;;;;;;4988654;28;20189;-75
2023/08/25 08:22:50;;;;;;;1999.90;999.90;;;20.50;99.90;;;;;;4991468;28;20526;-74
2023/08/25 08:25:16;;;;;;;1999.90;999.90;;;20.40;99.90;;;;;;4994762;28;20509;-75
2023/08/25 08:27:42;;;;;;;1999.90;999.90;;;20.30;99.90;;;;;;5011492;28;20181;-75
2023/08/25 08:30:09;;;;;;;1999.90;999.90;;;20.40;99.90;;;;;;5006729;28;20879;-72
2023/08/25 08:32:36;;;;;;;1999.90;999.90;;;20.40;99.90;;;;;;5006447;28;20526;-74
2023/08/25 08:35:07;;;;;;;1999.90;999.90;;;20.50;99.90;;;;;;5007676;28;20411;-74
2023/08/25 08:37:33;;;;;;;1999.90;999.90;;;20.50;99.90;;;;;;4991680;28;20417;-72
2023/08/25 08:39:58;;;;;;;1999.90;999.90;;;20.60;99.90;;;;;;4990826;28;20420;-72
2023/08/25 08:42:24;;;;;;;1999.90;999.90;;;20.80;99.90;;;;;;4991733;28;20477;-72
2023/08/25 08:44:50;;;;;;;1999.90;999.90;;;20.90;99.90;;;;;;4991011;28;20197;-72
2023/08/25 08:47:16;;;;;;;1999.90;999.90;;;21.10;99.90;;;;;;5003412;28;20946;-73
2023/08/25 08:49:44;;;;;;;1999.90;999.90;;;21.10;99.90;;;;;;5011407;28;20267;-75
2023/08/25 08:52:10;;;;;;;1999.90;999.90;;;21.10;99.90;;;;;;5010496;28;20461;-75
2023/08/25 08:54:40;;;;;;;1999.90;999.90;;;21.20;99.90;;;;;;5002251;28;20799;-75
2023/08/25 08:57:06;;;;;;;1999.90;999.90;;;21.30;99.90;;;;;;4998743;28;20426;-75
2023/08/25 08:59:31;;;;;;;1999.90;999.90;;;21.50;99.90;;;;;;5011004;28;20408;-75
2023/08/25 09:01:58;;;;;;;1999.90;999.90;;;21.70;99.90;;;;;;4999035;28;20194;-73
2023/08/25 09:04:25;;;;;;;1999.90;999.90;;;21.90;99.90;;;;;;5011380;28;20216;-73
2023/08/25 09:06:51;;;;;;;1999.90;999.90;;;22.20;99.90;;;;;;5009271;28;20859;-74
2023/08/25 09:09:23;;;;;;;1999.90;999.90;;;22.40;99.90;;;;;;4990648;28;20791;-74
2023/08/25 09:11:49;;;;;;;1999.90;999.90;;;22.50;99.90;;;;;;4995658;28;20517;-74
2023/08/25 09:14:29;;;;;;;1999.90;999.90;;;22.60;99.90;;;;;;5006545;28;20814;-76
2023/08/25 09:16:56;;;;;;;1999.90;999.90;;;22.70;99.90;;;;;;4998893;28;20186;-74
2023/08/25 09:19:22;;;;;;;1999.90;999.90;;;22.80;99.90;;;;;;5005994;28;20412;-76
2023/08/25 09:21:48;;;;;;;1999.90;999.90;;;23.00;99.90;;;;;;5002545;28;20423;-76
2023/08/25 09:24:21;;;;;;;1999.90;999.90;;;23.20;99.90;;;;;;5011745;28;20426;-76
2023/08/25 09:26:48;;;;;;;1999.90;999.90;;;23.30;99.90;;;;;;4998740;28;20387;-77
2023/08/25 09:29:14;;;;;;;1999.90;999.90;;;23.40;99.90;;;;;;5015733;28;20398;-74
2023/08/25 09:31:40;;;;;;;1999.90;999.90;;;23.40;99.90;;;;;;4996782;28;20462;-74
2023/08/25 09:34:08;;;;;;;1999.90;999.90;;;23.40;99.90;;;;;;5005379;28;20462;-72
2023/08/25 09:36:34;;;;;;;1999.90;999.90;;;23.40;99.90;;;;;;5003608;28;20388;-73
2023/08/25 09:39:01;;;;;;;1999.90;999.90;;;23.30;99.90;;;;;;4991190;28;20919;-72
2023/08/25 09:41:28;;;;;;;1999.90;999.90;;;23.20;99.90;;;;;;4991649;28;20439;-72
2023/08/25 09:44:01;;;;;;;1999.90;999.90;;;23.10;99.90;;;;;;4992040;28;20978;-72
2023/08/25 09:46:33;;;;;;;1999.90;999.90;;;23.00;99.90;;;;;;4990015;28;20838;-72
2023/08/25 09:49:05;;;;;;;1999.90;999.90;;;22.90;99.90;;;;;;5007808;28;20402;-72
2023/08/25 09:51:41;;;;;;;1999.90;999.90;;;22.80;99.90;;;;;;4994981;28;20524;-74
2023/08/25 09:54:12;;;;;;;1999.90;999.90;;;22.80;99.90;;;;;;4991836;28;20419;-72
2023/08/25 09:56:41;;;;;;;1999.90;999.90;;;22.70;99.90;;;;;;4990662;28;20482;-72
2023/08/25 09:59:09;;;;;;;1999.90;999.90;;;22.70;99.90;;;;;;4991718;28;20763;-72
2023/08/25 10:01:36;;;;;;;1999.90;999.90;;;22.70;99.90;;;;;;4989568;28;20414;-74
2023/08/25 10:04:03;;;;;;;1999.90;999.90;;;22.70;99.90;;;;;;4991815;28;21033;-75
2023/08/25 10:06:31;;;;;;;1999.90;999.90;;;22.70;99.90;;;;;;4990182;28;20402;-72
2023/08/25 10:08:57;;;;;;;1999.90;999.90;;;22.70;99.90;;;;;;4989771;28;20402;-75
2023/08/25 10:11:28;;;;;;;1999.90;999.90;;;22.60;99.90;;;;;;4989376;28;20496;-73
2023/08/25 10:13:56;;;;;;;1999.90;999.90;;;22.60;99.90;;;;;;4990956;28;20474;-77
2023/08/25 10:16:27;;;;;;;1999.90;999.90;;;22.50;99.90;;;;;;4990315;28;20413;-75
2023/08/25 10:18:56;;;;;;;1999.90;999.90;;;22.40;99.90;;;;;;4990203;28;20427;-77
2023/08/25 10:21:23;;;;;;;1999.90;999.90;;;21.90;99.90;;;;;;4990680;28;20865;-74
2023/08/25 10:23:53;;;;;;;1999.90;999.90;;;21.50;99.90;;;;;;4994342;28;20433;-77
2023/08/25 10:26:19;;;;;;;1999.90;999.90;;;21.10;99.90;;;;;;4989837;28;20395;-75
2023/08/25 10:28:46;;;;;;;1999.90;999.90;;;20.60;99.90;;;;;;4989342;28;20804;-76
2023/08/25 10:31:13;;;;;;;1999.90;999.90;;;20.20;99.90;;;;;;4989677;28;20459;-72
2023/08/25 10:33:46;;;;;;;1999.90;999.90;;;19.90;99.90;;;;;;4989390;28;20969;-76
2023/08/25 10:36:16;;;;;;;1999.90;999.90;;;19.70;99.90;;;;;;4989093;28;20424;-75
2023/08/25 10:39:02;;;;;;;1999.90;999.90;;;19.60;99.90;;;;;;5000205;28;20431;-75
2023/08/25 10:41:28;;;;;;;1999.90;999.90;;;19.70;99.90;;;;;;4989448;28;20431;-75
2023/08/25 10:43:55;;;;;;;1999.90;999.90;;;19.90;99.90;;;;;;4993771;28;20444;-71
2023/08/25 10:46:22;;;;;;;1999.90;999.90;;;20.10;99.90;;;;;;5003294;28;20182;-74
2023/08/25 10:49:01;;;;;;;1999.90;999.90;;;20.40;99.90;;;;;;5003746;28;20431;-76
2023/08/25 10:51:27;;;;;;;1999.90;999.90;;;20.60;99.90;;;;;;4999813;28;20504;-73
2023/08/25 10:53:53;;;;;;;1999.90;999.90;;;20.80;99.90;;;;;;5006296;28;20445;-76
2023/08/25 10:56:26;;;;;;;1999.90;999.90;;;20.90;99.90;;;;;;4988735;28;20433;-75
2023/08/25 10:59:04;;;;;;;1999.90;999.90;;;20.90;99.90;;;;;;4989973;28;20419;-75
2023/08/25 11:01:42;;;;;;;1999.90;999.90;;;21.10;99.90;;;;;;4990048;28;20410;-72
2023/08/25 11:04:19;;;;;;;1999.90;999.90;;;21.20;99.90;;;;;;4989653;28;20440;-72
2023/08/25 11:06:47;;;;;;;1999.90;999.90;;;21.30;99.90;;;;;;4988377;28;20424;-73
2023/08/25 11:09:18;;;;;;;1999.90;999.90;;;21.40;99.90;;;;;;4989845;28;20420;-74
2023/08/25 11:11:45;;;;;;;1999.90;999.90;;;21.70;99.90;;;;;;4988747;28;20512;-74
2023/08/25 11:14:11;;;;;;;1999.90;999.90;;;21.80;99.90;;;;;;4988535;28;20468;-74
2023/08/25 11:16:40;;;;;;;1999.90;999.90;;;21.90;99.90;;;;;;4989400;28;20415;-70
2023/08/25 11:19:10;;;;;;;1999.90;999.90;;;21.90;99.90;;;;;;4990043;28;20420;-73
2023/08/25 11:21:36;;;;;;;1999.90;999.90;;;21.90;99.90;;;;;;4988262;28;20420;-74
2023/08/25 11:24:02;;;;;;;1999.90;999.90;;;21.90;99.90;;;;;;4988553;28;20429;-74
2023/08/25 11:26:28;;;;;;;1999.90;999.90;;;21.90;99.90;;;;;;4988823;28;20423;-73
2023/08/25 11:28:54;;;;;;;1999.90;999.90;;;22.00;99.90;;;;;;4988418;28;20435;-73
2023/08/25 11:31:21;;;;;;;1999.90;999.90;;;21.90;99.90;;;;;;4988383;28;20212;-73
2023/08/25 11:33:49;;;;;;;1999.90;999.90;;;21.90;99.90;;;;;;5003863;28;20447;-69
2023/08/25 11:36:17;;;;;;;1999.90;999.90;;;22.00;99.90;;;;;;5022774;28;20421;-67
2023/08/25 11:38:48;;;;;;;1999.90;999.90;;;22.10;99.90;;;;;;5034083;28;20400;-69
2023/08/25 11:41:14;;;;;;;1999.90;999.90;;;22.30;99.90;;;;;;5031274;28;20529;-69
2023/08/25 11:43:40;;;;;;;1999.90;999.90;;;22.30;99.90;;;;;;5031207;28;20929;-70
2023/08/25 11:46:05;;;;;;;1999.90;999.90;;;22.30;99.90;;;;;;5032510;28;20187;-72
2023/08/25 11:48:34;;;;;;;1999.90;999.90;;;22.40;99.90;;;;;;5031584;28;20343;-70
2023/08/25 11:51:00;;;;;;;1999.90;999.90;;;22.40;99.90;;;;;;5030521;28;20255;-68
2023/08/25 11:53:26;;;;;;;1999.90;999.90;;;22.40;99.90;;;;;;5032260;28;20430;-68
2023/08/25 11:56:02;;;;;;;1999.90;999.90;;;22.40;99.90;;;;;;5031493;28;20506;-70
2023/08/25 11:58:32;;;;;;;1999.90;999.90;;;22.50;99.90;;;;;;5031892;28;20210;-72